Time;durP1;ratioP1;P1;durP2;ratioP2;P2;SDS_P1;SDS_P2;PMS_P1;PMS_P2;Temp;Humidity;BMP_temperature;BMP_pressure;BME280_temperature;BME280_humidity;BME280_pressure;Samples;Min_cycle;Max_cycle;Signal;HPM_P1;HPM_P2
2023/10/10 00:01:30;;;;;;;;;;;;;;;13.74;100.00;102038.19;4902779;29;19916;-94
2023/10/10 00:03:55;;;;;;;;;;;;;;;13.72;100.00;102031.13;4919237;29;19923;-94
2023/10/10 00:06:24;;;;;;;;;;;;;;;13.73;100.00;102031.19;4903041;29;20400;-95
2023/10/10 00:08:50;;;;;;;;;;;;;;;13.73;100.00;102033.78;4902853;29;19919;-94
2023/10/10 00:11:19;;;;;;;;;;;;;;;13.74;100.00;102032.97;4902435;29;19915;-94
2023/10/10 00:13:47;;;;;;;;;;;;;;;13.77;100.00;102029.50;4902702;29;19915;-95
2023/10/10 00:16:26;;;;;;;;;;;;;;;13.78;100.00;102038.28;4901804;29;19915;-95
2023/10/10 00:18:55;;;;;;;;;;;;;;;13.78;100.00;102035.66;4902223;29;19915;-94
2023/10/10 00:21:24;;;;;;;;;;;;;;;13.77;100.00;102033.88;4902481;29;19919;-95
2023/10/10 00:23:53;;;;;;;;;;;;;;;13.77;100.00;102033.88;4902100;29;19921;-94
2023/10/10 00:26:21;;;;;;;;;;;;;;;13.72;100.00;102032.00;4902245;29;19923;-94
2023/10/10 00:28:56;;;;;;;;;;;;;;;13.67;100.00;102035.31;4902276;29;20494;-94
2023/10/10 00:31:31;;;;;;;;;;;;;;;13.54;100.00;102031.44;4902296;29;19915;-95
2023/10/10 00:33:56;;;;;;;;;;;;;;;13.46;100.00;102025.09;4902629;29;19915;-95
2023/10/10 00:36:22;;;;;;;;;;;;;;;13.44;100.00;102029.38;4902045;29;20278;-94
2023/10/10 00:41:44;;;;;;;;;;;;;;;13.44;100.00;102032.00;4919164;29;19919;-95
2023/10/10 00:44:16;;;;;;;;;;;;;;;13.43;100.00;102025.91;4902098;29;19938;-95
2023/10/10 00:46:42;;;;;;;;;;;;;;;13.41;100.00;102022.31;4902130;29;19927;-94
2023/10/10 00:49:13;;;;;;;;;;;;;;;13.41;100.00;102027.56;4901971;29;19919;-95
2023/10/10 00:51:39;;;;;;;;;;;;;;;13.37;100.00;102023.97;4902195;29;20438;-95
2023/10/10 00:54:26;;;;;;;;;;;;;;;13.36;100.00;102018.69;4902197;29;19940;-96
2023/10/10 00:56:55;;;;;;;;;;;;;;;13.36;100.00;102029.16;4901670;29;19915;-95
2023/10/10 00:59:42;;;;;;;;;;;;;;;13.33;100.00;102022.06;4901739;29;19915;-95
2023/10/10 01:02:10;;;;;;;;;;;;;;;13.33;100.00;102019.44;4901557;29;19966;-95
2023/10/10 01:04:38;;;;;;;;;;;;;;;13.31;100.00;102009.75;4901358;29;19962;-95
2023/10/10 01:07:06;;;;;;;;;;;;;;;13.30;100.00;102010.63;4901739;29;19920;-95
2023/10/10 01:09:33;;;;;;;;;;;;;;;13.28;100.00;102010.56;4902014;29;19928;-95
2023/10/10 01:11:59;;;;;;;;;;;;;;;13.28;100.00;102007.97;4901207;29;19915;-95
2023/10/10 01:14:30;;;;;;;;;;;;;;;13.27;100.00;102000.94;4901361;29;20319;-94
2023/10/10 01:16:57;;;;;;;;;;;;;;;13.27;100.00;102002.69;4901708;29;19915;-94
2023/10/10 01:19:34;;;;;;;;;;;;;;;13.24;100.00;102000.84;4901743;29;20266;-95
2023/10/10 01:22:12;;;;;;;;;;;;;;;13.21;100.00;101992.91;4901591;29;20474;-94
2023/10/10 01:24:43;;;;;;;;;;;;;;;13.21;100.00;101987.66;4901604;29;19919;-95
2023/10/10 01:27:21;;;;;;;;;;;;;;;13.20;100.00;101991.13;4901797;29;19915;-96
2023/10/10 01:30:16;;;;;;;;;;;;;;;13.20;100.00;101989.38;4901427;29;20396;-95
2023/10/10 01:32:39;;;;;;;;;;;;;;;13.20;100.00;101991.13;4917934;29;19923;-94
2023/10/10 01:35:15;;;;;;;;;;;;;;;13.15;100.00;101984.84;4901577;29;19918;-95
2023/10/10 01:37:54;;;;;;;;;;;;;;;13.11;100.00;101980.38;4901186;29;19911;-94
2023/10/10 01:40:19;;;;;;;;;;;;;;;13.09;100.00;101975.06;4901005;29;19969;-95
2023/10/10 01:42:51;;;;;;;;;;;;;;;13.04;100.00;101968.81;4901142;29;19915;-94
2023/10/10 01:45:19;;;;;;;;;;;;;;;12.89;100.00;101977.06;4901104;29;19926;-94
2023/10/10 01:47:56;;;;;;;;;;;;;;;12.75;100.00;101968.75;4900447;29;20023;-95
2023/10/10 01:50:26;;;;;;;;;;;;;;;12.69;100.00;101964.22;4901174;29;19915;-95
2023/10/10 01:53:10;;;;;;;;;;;;;;;12.70;100.00;101970.31;4901218;29;20364;-94
2023/10/10 01:55:38;;;;;;;;;;;;;;;12.74;100.00;101963.50;4901024;29;19965;-94
2023/10/10 01:58:10;;;;;;;;;;;;;;;12.76;100.00;101961.78;4901077;29;20364;-95
2023/10/10 02:00:37;;;;;;;;;;;;;;;12.78;100.00;101954.91;4901068;29;20046;-95
2023/10/10 02:03:06;;;;;;;;;;;;;;;12.82;100.00;101943.72;4917145;29;20031;-94
2023/10/10 02:05:41;;;;;;;;;;;;;;;12.84;100.00;101952.47;4900187;29;19930;-95
2023/10/10 02:08:11;;;;;;;;;;;;;;;12.87;100.00;101950.88;4900351;29;19930;-94
2023/10/10 02:10:37;;;;;;;;;;;;;;;12.90;100.00;101944.81;4900650;29;19915;-94
2023/10/10 02:15:53;;;;;;;;;;;;;;;12.91;100.00;101944.00;4917140;29;19922;-94
2023/10/10 02:18:37;;;;;;;;;;;;;;;12.87;100.00;101934.25;4917252;29;19915;-94
2023/10/10 02:21:07;;;;;;;;;;;;;;;12.86;100.00;101937.72;4900118;29;20371;-95
2023/10/10 02:23:35;;;;;;;;;;;;;;;12.83;100.00;101935.00;4898024;29;20440;-94
2023/10/10 02:28:49;;;;;;;;;;;;;;;12.78;100.00;101932.25;4917706;29;19937;-94
2023/10/10 02:31:21;;;;;;;;;;;;;;;12.77;100.00;101921.75;4900511;29;19916;-94
2023/10/10 02:33:51;;;;;;;;;;;;;;;12.72;100.00;101923.34;4915132;29;19915;-94
2023/10/10 02:36:29;;;;;;;;;;;;;;;12.71;100.00;101919.81;4929058;29;19918;-95
2023/10/10 02:38:58;;;;;;;;;;;;;;;12.72;100.00;101920.72;4919714;29;19961;-95
2023/10/10 02:41:39;;;;;;;;;;;;;;;12.72;100.00;101916.38;4919287;29;19915;-94
2023/10/10 02:44:26;;;;;;;;;;;;;;;12.72;100.00;101913.75;4919176;29;19914;-94
2023/10/10 02:46:56;;;;;;;;;;;;;;;12.73;100.00;101915.53;4935254;29;19915;-95
2023/10/10 02:49:22;;;;;;;;;;;;;;;12.72;100.00;101918.09;4919249;29;19915;-94
2023/10/10 02:51:55;;;;;;;;;;;;;;;12.69;100.00;101921.50;4919141;29;19990;-94
2023/10/10 02:59:39;;;;;;;;;;;;;;;12.68;100.00;101917.09;4936342;29;20284;-94
2023/10/10 03:02:11;;;;;;;;;;;;;;;12.68;100.00;101922.34;4919486;29;19915;-95
2023/10/10 03:05:15;;;;;;;;;;;;;;;12.65;100.00;101922.25;4918421;29;19929;-94
2023/10/10 03:07:28;;;;;;;;;;;;;;;12.64;100.00;101912.59;4933026;29;19958;-96
2023/10/10 03:10:21;;;;;;;;;;;;;;;12.64;100.00;101913.50;4918421;29;19915;-94
2023/10/10 03:12:50;;;;;;;;;;;;;;;12.63;100.00;101921.28;4918601;29;19954;-95
2023/10/10 03:18:04;;;;;;;;;;;;;;;12.62;100.00;101919.53;4939614;29;19922;-95
2023/10/10 03:23:18;;;;;;;;;;;;;;;12.60;100.00;101923.78;4939955;29;19918;-95
2023/10/10 03:25:53;;;;;;;;;;;;;;;12.58;100.00;101921.13;4922570;29;19926;-93
2023/10/10 03:28:20;;;;;;;;;;;;;;;12.54;100.00;101919.25;4922047;29;19962;-94
2023/10/10 03:30:52;;;;;;;;;;;;;;;12.53;100.00;101923.59;4922529;29;19911;-94
2023/10/10 03:33:35;;;;;;;;;;;;;;;12.51;100.00;101920.06;4922668;29;19915;-95
2023/10/10 03:36:31;;;;;;;;;;;;;;;12.48;100.00;101922.59;4922673;29;19966;-95
2023/10/10 05:25:52;;;;;;;;;;;;;;;12.03;100.00;101867.03;4937292;29;20415;-94
2023/10/10 05:28:29;;;;;;;;;;;;;;;12.01;100.00;101861.75;4920606;29;19981;-94
2023/10/10 05:30:55;;;;;;;;;;;;;;;12.00;100.00;101858.25;4920157;29;19915;-94
2023/10/10 05:33:21;;;;;;;;;;;;;;;12.01;100.00;101853.94;4920008;29;19922;-95
2023/10/10 05:35:52;;;;;;;;;;;;;;;12.00;100.00;101852.13;4920207;29;20329;-95
2023/10/10 05:38:19;;;;;;;;;;;;;;;11.98;100.00;101853.81;4918868;29;19915;-94
2023/10/10 05:40:47;;;;;;;;;;;;;;;11.99;100.00;101853.88;4920621;29;19990;-95
2023/10/10 05:43:19;;;;;;;;;;;;;;;12.02;100.00;101854.81;4920255;29;19915;-95
2023/10/10 05:45:47;;;;;;;;;;;;;;;12.03;100.00;101844.41;4920370;29;19922;-95
2023/10/10 05:48:14;;;;;;;;;;;;;;;12.04;100.00;101848.81;4919733;29;19921;-94
2023/10/10 05:50:48;;;;;;;;;;;;;;;12.05;100.00;101839.22;4920282;29;19918;-94
2023/10/10 05:53:15;;;;;;;;;;;;;;;12.06;100.00;101851.47;4920050;29;19965;-95
2023/10/10 05:55:41;;;;;;;;;;;;;;;12.06;100.00;101851.47;4920131;29;19954;-95
2023/10/10 05:58:08;;;;;;;;;;;;;;;12.05;100.00;101857.50;4919980;29;19915;-95
2023/10/10 06:00:36;;;;;;;;;;;;;;;12.06;100.00;101859.31;4919805;29;19962;-95
2023/10/10 06:03:05;;;;;;;;;;;;;;;12.05;100.00;101854.91;4919275;29;19918;-94
2023/10/10 06:05:31;;;;;;;;;;;;;;;12.05;100.00;101841.84;4916864;29;19934;-93
2023/10/10 06:07:58;;;;;;;;;;;;;;;12.07;100.00;101848.03;4889606;29;19948;-95
2023/10/10 06:10:28;;;;;;;;;;;;;;;12.06;100.00;101841.91;4901145;29;19915;-95
2023/10/10 06:13:03;;;;;;;;;;;;;;;12.07;100.00;101848.91;4888094;29;19915;-95
2023/10/10 06:15:36;;;;;;;;;;;;;;;12.07;100.00;101842.81;4887697;29;19987;-96
2023/10/10 06:18:08;;;;;;;;;;;;;;;12.06;100.00;101849.72;4900437;29;19919;-95
2023/10/10 06:20:41;;;;;;;;;;;;;;;12.05;100.00;101842.75;4900327;29;19963;-95
2023/10/10 06:23:21;;;;;;;;;;;;;;;12.06;100.00;101847.13;4889914;29;19915;-94
2023/10/10 06:25:47;;;;;;;;;;;;;;;12.06;100.00;101846.25;4888024;29;19919;-95
2023/10/10 06:28:22;;;;;;;;;;;;;;;12.06;100.00;101844.50;4892390;29;19915;-95
2023/10/10 06:30:52;;;;;;;;;;;;;;;12.07;100.00;101846.28;4911070;29;19958;-96
2023/10/10 06:33:18;;;;;;;;;;;;;;;12.07;100.00;101837.56;4893644;29;19919;-95
2023/10/10 06:35:56;;;;;;;;;;;;;;;12.07;100.00;101840.19;4897467;29;19928;-95
2023/10/10 06:38:24;;;;;;;;;;;;;;;12.07;100.00;101841.06;4892039;29;19937;-96
2023/10/10 06:40:54;;;;;;;;;;;;;;;12.08;100.00;101835.00;4899336;29;19923;-96
2023/10/10 06:43:22;;;;;;;;;;;;;;;12.09;100.00;101839.38;4890040;29;19915;-95
2023/10/10 06:45:54;;;;;;;;;;;;;;;12.11;100.00;101834.22;4895892;29;19927;-94
2023/10/10 06:48:40;;;;;;;;;;;;;;;12.13;100.00;101836.03;4900398;29;19923;-96
2023/10/10 06:51:09;;;;;;;;;;;;;;;12.14;100.00;101844.78;4902595;29;19915;-96
2023/10/10 06:53:35;;;;;;;;;;;;;;;12.15;100.00;101841.31;4904626;29;19986;-96
2023/10/10 06:56:14;;;;;;;;;;;;;;;12.16;100.00;101837.88;4900985;29;19971;-95
2023/10/10 06:58:43;;;;;;;;;;;;;;;12.17;100.00;101837.03;4891005;29;20487;-96
2023/10/10 07:01:11;;;;;;;;;;;;;;;12.17;100.00;101832.69;4904664;29;20397;-96
2023/10/10 07:03:52;;;;;;;;;;;;;;;12.20;100.00;101844.97;4904446;29;19915;-96
2023/10/10 07:06:20;;;;;;;;;;;;;;;12.22;100.00;101843.28;4885531;29;20017;-96
2023/10/10 07:08:49;;;;;;;;;;;;;;;12.24;100.00;101841.63;4871079;29;19922;-96
2023/10/10 07:11:20;;;;;;;;;;;;;;;12.25;100.00;101832.97;4867306;29;19916;-96
2023/10/10 07:13:58;;;;;;;;;;;;;;;12.28;100.00;101833.06;4879823;29;19915;-96
2023/10/10 07:16:23;;;;;;;;;;;;;;;12.32;100.00;101824.44;4884418;29;19927;-96
2023/10/10 07:18:56;;;;;;;;;;;;;;;12.35;100.00;101824.59;4901071;29;20023;-96
2023/10/10 07:21:36;;;;;;;;;;;;;;;12.38;100.00;101820.28;4875378;29;19915;-96
2023/10/10 07:24:14;;;;;;;;;;;;;;;12.40;100.00;101827.34;4872147;29;19915;-96
2023/10/10 07:26:44;;;;;;;;;;;;;;;12.45;100.00;101824.84;4885331;29;19919;-96
2023/10/10 07:29:27;;;;;;;;;;;;;;;12.48;100.00;101817.13;4885683;29;20360;-96
2023/10/10 07:32:39;;;;;;;;;;;;;;;12.52;100.00;101822.47;4872259;29;19923;-96
2023/10/10 07:34:42;;;;;;;;;;;;;;;12.57;100.00;101825.25;4898452;29;19970;-96
2023/10/10 07:37:14;;;;;;;;;;;;;;;12.61;100.00;101827.09;4881324;29;20353;-96
2023/10/10 07:39:55;;;;;;;;;;;;;;;12.64;100.00;101823.69;4878287;29;19920;-96
2023/10/10 07:42:30;;;;;;;;;;;;;;;12.68;100.00;101818.59;4884787;29;20301;-96
2023/10/10 07:44:57;;;;;;;;;;;;;;;12.72;100.00;101814.38;4885199;29;19935;-96
2023/10/10 07:47:26;;;;;;;;;;;;;;;12.76;100.00;101815.34;4885239;29;19963;-96
2023/10/10 07:49:53;;;;;;;;;;;;;;;12.78;100.00;101817.16;4884518;29;19998;-96
2023/10/10 07:52:20;;;;;;;;;;;;;;;12.80;100.00;101812.88;4873399;29;19921;-96
2023/10/10 07:55:03;;;;;;;;;;;;;;;12.85;100.00;101818.25;4872361;29;20385;-96
2023/10/10 07:57:29;;;;;;;;;;;;;;;12.88;100.00;101816.59;4877721;29;19916;-96
2023/10/10 07:59:58;;;;;;;;;;;;;;;12.92;100.00;101814.97;4878404;29;20007;-95
2023/10/10 08:02:49;;;;;;;;;;;;;;;12.97;100.00;101815.97;4874487;29;20006;-95
2023/10/10 08:05:13;;;;;;;;;;;;;;;13.02;100.00;101822.25;4911545;29;19975;-96
2023/10/10 08:07:46;;;;;;;;;;;;;;;13.07;100.00;101826.75;4896987;29;19922;-96
2023/10/10 08:10:29;;;;;;;;;;;;;;;13.13;100.00;101819.94;4887076;29;19916;-96
2023/10/10 08:12:56;;;;;;;;;;;;;;;13.18;100.00;101820.09;4896765;29;20396;-95
2023/10/10 08:15:28;;;;;;;;;;;;;;;13.25;100.00;101831.59;4903334;29;20030;-96
2023/10/10 08:17:54;;;;;;;;;;;;;;;13.32;100.00;101826.56;4903273;29;19919;-95
2023/10/10 08:23:14;;;;;;;;;;;;;;;13.45;100.00;101824.34;4916237;29;19922;-96
2023/10/10 08:25:40;;;;;;;;;;;;;;;13.51;100.00;101821.88;4902044;29;19941;-96
2023/10/10 08:28:08;;;;;;;;;;;;;;;13.57;100.00;101819.44;4894486;29;20527;-96
2023/10/10 08:30:34;;;;;;;;;;;;;;;13.64;100.00;101821.38;4896607;29;19915;-96
2023/10/10 08:32:59;;;;;;;;;;;;;;;13.69;100.00;101824.13;4890180;29;20418;-96
2023/10/10 08:35:29;;;;;;;;;;;;;;;13.71;100.00;101820.69;4903616;29;19922;-96
2023/10/10 08:37:56;;;;;;;;;;;;;;;13.76;100.00;101820.81;4900297;29;19926;-96
2023/10/10 08:40:21;;;;;;;;;;;;;;;13.81;100.00;101813.97;4902340;29;19962;-96
2023/10/10 08:42:52;;;;;;;;;;;;;;;13.86;100.00;101816.69;4896447;29;19915;-96
2023/10/10 08:45:28;;;;;;;;;;;;;;;13.91;100.00;101821.19;4891252;29;19923;-95
2023/10/10 08:48:03;;;;;;;;;;;;;;;13.96;100.00;101823.97;4900317;29;19965;-95
2023/10/10 08:50:32;;;;;;;;;;;;;;;14.01;100.00;101824.94;4893876;29;19915;-95
2023/10/10 08:53:02;;;;;;;;;;;;;;;14.07;100.00;101826.84;4890232;29;20042;-96
2023/10/10 08:55:28;;;;;;;;;;;;;;;14.09;100.00;101826.03;4892200;29;20388;-96
2023/10/10 08:57:55;;;;;;;;;;;;;;;14.15;100.00;101827.03;4896880;29;19916;-95
2023/10/10 09:00:21;;;;;;;;;;;;;;;14.19;100.00;101827.16;4883890;29;19923;-95
2023/10/10 09:02:49;;;;;;;;;;;;;;;14.24;100.00;101824.66;4894110;29;19998;-96
2023/10/10 09:05:22;;;;;;;;;;;;;;;14.30;100.00;101822.16;4886104;29;19952;-95
2023/10/10 09:07:52;;;;;;;;;;;;;;;14.35;100.00;101822.25;4882732;29;20010;-95
2023/10/10 09:10:21;;;;;;;;;;;;;;;14.41;100.00;101825.03;4883274;29;20002;-96
2023/10/10 09:12:52;;;;;;;;;;;;;;;14.47;100.00;101822.56;4885086;29;19916;-96
2023/10/10 09:15:20;;;;;;;;;;;;;;;14.54;100.00;101823.56;4884590;29;19916;-96
2023/10/10 09:17:51;;;;;;;;;;;;;;;14.58;100.00;101823.72;4870178;29;19937;-95
2023/10/10 09:20:25;;;;;;;;;;;;;;;14.63;100.00;101829.09;4873306;29;19922;-95
2023/10/10 09:22:55;;;;;;;;;;;;;;;14.71;100.00;101822.25;4886676;29;19915;-95
2023/10/10 09:28:15;;;;;;;;;;;;;;;14.82;100.00;101813.75;4911225;29;19922;-95
2023/10/10 09:30:49;;;;;;;;;;;;;;;14.88;100.00;101819.13;4869743;29;19916;-96
2023/10/10 09:33:33;;;;;;;;;;;;;;;14.92;100.00;101824.47;4864966;29;19962;-96
2023/10/10 09:36:08;;;;;;;;;;;;;;;15.00;100.00;101818.50;4883584;29;19967;-96
2023/10/10 09:38:46;;;;;;;;;;;;;;;15.08;100.00;101817.81;4872696;29;19915;-96
2023/10/10 09:41:29;;;;;;;;;;;;;;;15.19;100.00;101831.13;4879287;29;19955;-95
2023/10/10 09:44:26;;;;;;;;;;;;;;;15.27;100.00;101824.31;4864554;29;19916;-96
2023/10/10 10:06:34;;;;;;;;;;;;;;;16.22;100.00;101818.13;4909131;29;19927;-96
2023/10/10 10:09:18;;;;;;;;;;;;;;;16.37;100.00;101815.75;4895207;29;19923;-96
2023/10/10 10:11:46;;;;;;;;;;;;;;;16.43;96.57;101810.56;4893315;29;20399;-96
2023/10/10 10:14:21;;;;;;;;;;;;;;;16.57;98.34;101812.50;4896772;29;19915;-96
2023/10/10 10:17:18;;;;;;;;;;;;;;;16.81;99.40;101815.50;4882521;29;20389;-95
2023/10/10 10:19:47;;;;;;;;;;;;;;;16.98;94.62;101812.25;4906556;29;19915;-96
2023/10/10 10:22:17;;;;;;;;;;;;;;;17.21;96.32;101821.28;4906820;23;20185;-89
2023/10/10 10:24:44;;;;;;;;;;;;;;;17.62;96.46;101811.19;4913304;29;19919;-89
2023/10/10 10:30:07;;;;;;;;;;;;;;;18.13;93.84;101804.63;4914638;29;19954;-89
2023/10/10 10:32:35;;;;;;;;;;;;;;;18.38;92.87;101810.13;4914265;29;19919;-89
2023/10/10 10:35:01;;;;;;;;;;;;;;;18.59;93.75;101806.72;4897343;29;19915;-89
2023/10/10 10:37:28;;;;;;;;;;;;;;;18.67;89.32;101810.28;4897037;29;19947;-89
2023/10/10 10:42:41;;;;;;;;;;;;;;;18.73;90.74;101799.75;4914343;29;19915;-89
2023/10/10 10:45:26;;;;;;;;;;;;;;;18.78;88.98;101797.13;4897113;29;19925;-90
2023/10/10 10:47:54;;;;;;;;;;;;;;;18.86;85.73;101798.09;4897257;29;19998;-90
2023/10/10 10:50:28;;;;;;;;;;;;;;;19.01;89.19;101797.25;4914207;29;19946;-89
2023/10/10 10:52:57;;;;;;;;;;;;;;;19.33;89.47;101788.56;4914152;29;19926;-89
2023/10/10 10:55:29;;;;;;;;;;;;;;;19.55;87.41;101789.50;4913975;29;19922;-89
2023/10/10 10:58:06;;;;;;;;;;;;;;;19.85;88.82;101792.19;4913989;29;19997;-89
2023/10/10 11:00:56;;;;;;;;;;;;;;;20.03;87.93;101789.56;4913491;29;19915;-89
2023/10/10 11:03:33;;;;;;;;;;;;;;;20.25;86.13;101779.81;4896965;29;20006;-90
2023/10/10 11:05:59;;;;;;;;;;;;;;;20.48;85.18;101786.84;4897001;29;19930;-90
2023/10/10 11:11:24;;;;;;;;;;;;;;;20.68;83.78;101776.19;4914464;29;20010;-90
2023/10/10 11:14:00;;;;;;;;;;;;;;;20.83;81.19;101773.50;4913944;29;20381;-90
2023/10/10 11:16:37;;;;;;;;;;;;;;;20.84;81.25;101771.72;4897059;29;19938;-90
2023/10/10 11:19:19;;;;;;;;;;;;;;;20.79;77.73;101763.81;4913982;29;19916;-90
2023/10/10 11:21:50;;;;;;;;;;;;;;;20.85;79.81;101773.50;4896507;29;19923;-90
2023/10/10 11:24:25;;;;;;;;;;;;;;;21.10;80.50;101761.03;4896599;29;19958;-90
2023/10/10 11:29:34;;;;;;;;;;;;;;;21.25;75.57;101752.09;4913883;29;19921;-90
2023/10/10 11:32:07;;;;;;;;;;;;;;;21.25;77.27;101751.22;4896921;29;19915;-90
2023/10/10 11:34:42;;;;;;;;;;;;;;;21.24;80.06;101747.66;4896757;29;19919;-90
2023/10/10 11:37:14;;;;;;;;;;;;;;;21.44;78.39;101746.69;4900148;29;20026;-90
2023/10/10 11:39:48;;;;;;;;;;;;;;;21.47;77.33;101754.59;4917382;29;20006;-90
2023/10/10 11:42:24;;;;;;;;;;;;;;;21.64;78.63;101750.09;4900222;29;19919;-90
2023/10/10 11:45:07;;;;;;;;;;;;;;;21.87;77.49;101741.06;4874882;29;19928;-90
2023/10/10 11:47:42;;;;;;;;;;;;;;;21.93;70.54;101738.34;4917118;29;19922;-90
2023/10/10 11:50:08;;;;;;;;;;;;;;;21.94;73.17;101728.59;4886746;29;20341;-90
2023/10/10 11:52:34;;;;;;;;;;;;;;;21.98;75.98;101722.38;4870014;29;20240;-90
2023/10/10 11:55:00;;;;;;;;;;;;;;;22.14;76.88;101726.59;4865777;29;20007;-90
2023/10/10 11:57:33;;;;;;;;;;;;;;;22.27;75.78;101726.50;4881792;29;19968;-90
2023/10/10 11:59:59;;;;;;;;;;;;;;;22.47;70.62;101724.50;4900007;29;19986;-90
2023/10/10 12:02:39;;;;;;;;;;;;;;;22.64;69.30;101724.31;4917206;29;20123;-90
2023/10/10 12:05:15;;;;;;;;;;;;;;;22.75;72.32;101721.50;4907359;29;19923;-90
2023/10/10 12:07:40;;;;;;;;;;;;;;;22.77;73.13;101719.72;4900059;29;19926;-90
2023/10/10 12:10:08;;;;;;;;;;;;;;;22.85;73.39;101722.28;4899862;29;20309;-90
2023/10/10 12:12:33;;;;;;;;;;;;;;;22.89;72.92;101721.34;4899966;29;19915;-90
2023/10/10 12:15:00;;;;;;;;;;;;;;;22.98;68.60;101712.34;4899817;29;19915;-90
2023/10/10 12:17:28;;;;;;;;;;;;;;;22.95;72.10;101723.91;4916762;29;19915;-90
2023/10/10 12:19:53;;;;;;;;;;;;;;;22.83;65.44;101716.97;4899435;29;19942;-90
2023/10/10 12:22:18;;;;;;;;;;;;;;;22.72;71.51;101710.91;4899418;29;20401;-90
2023/10/10 12:24:43;;;;;;;;;;;;;;;22.83;68.91;101719.63;4895264;29;19966;-90
2023/10/10 12:27:13;;;;;;;;;;;;;;;22.97;70.34;101708.81;4892131;29;19919;-90
2023/10/10 12:29:39;;;;;;;;;;;;;;;23.09;68.30;101702.44;4910510;29;20412;-89
2023/10/10 12:32:14;;;;;;;;;;;;;;;23.25;67.42;101698.69;4916114;29;19962;-90
2023/10/10 12:34:40;;;;;;;;;;;;;;;23.33;69.01;101695.88;4899150;29;19922;-90
2023/10/10 12:37:05;;;;;;;;;;;;;;;23.47;66.93;101695.66;4916160;29;19915;-90
2023/10/10 12:39:30;;;;;;;;;;;;;;;23.56;63.33;101684.00;4916238;29;19915;-90
2023/10/10 12:41:55;;;;;;;;;;;;;;;23.60;67.79;101685.69;4899275;29;19921;-90
2023/10/10 12:44:23;;;;;;;;;;;;;;;23.67;66.52;101681.16;4899245;29;20381;-90
2023/10/10 12:46:48;;;;;;;;;;;;;;;23.78;64.27;101682.72;4898924;29;20022;-90
2023/10/10 12:49:13;;;;;;;;;;;;;;;23.93;62.94;101680.72;4916061;29;20495;-90
2023/10/10 12:51:39;;;;;;;;;;;;;;;23.83;63.73;101679.97;4908653;29;19927;-90
2023/10/10 12:54:05;;;;;;;;;;;;;;;23.81;63.29;101680.91;4898018;29;19947;-91
2023/10/10 12:56:38;;;;;;;;;;;;;;;23.90;60.22;101681.66;4915818;29;19919;-90
2023/10/10 12:59:03;;;;;;;;;;;;;;;24.02;59.18;101680.53;4915656;29;20442;-90
2023/10/10 13:01:32;;;;;;;;;;;;;;;24.08;57.31;101679.53;4898748;29;19993;-89
2023/10/10 13:03:58;;;;;;;;;;;;;;;24.08;61.29;101677.75;4902877;29;19922;-90
2023/10/10 13:06:24;;;;;;;;;;;;;;;24.02;59.57;101672.53;4915762;29;19942;-89
2023/10/10 13:08:54;;;;;;;;;;;;;;;24.03;60.47;101665.41;4915768;29;20329;-91
2023/10/10 13:11:35;;;;;;;;;;;;;;;24.11;60.31;101674.16;4898764;29;20005;-90
2023/10/10 13:14:14;;;;;;;;;;;;;;;24.16;62.17;101679.38;4915586;29;19927;-90
2023/10/10 13:19:09;;;;;;;;;;;;;;;23.96;57.01;101678.00;4915816;29;20415;-91
2023/10/10 13:21:35;;;;;;;;;;;;;;;24.00;61.49;101676.13;4915383;29;19923;-91
2023/10/10 13:24:00;;;;;;;;;;;;;;;23.96;57.96;101675.31;4898471;29;19987;-90
2023/10/10 13:26:27;;;;;;;;;;;;;;;23.87;58.52;101683.47;4898207;29;19973;-89
2023/10/10 13:28:52;;;;;;;;;;;;;;;23.88;58.23;101678.16;4898460;29;19919;-91
2023/10/10 13:31:18;;;;;;;;;;;;;;;23.95;58.12;101671.78;4898053;29;19923;-89
2023/10/10 13:33:43;;;;;;;;;;;;;;;23.94;59.44;101674.47;4898149;29;19919;-90
2023/10/10 13:36:11;;;;;;;;;;;;;;;23.97;60.56;101685.09;4915399;29;19966;-90
2023/10/10 13:38:37;;;;;;;;;;;;;;;24.03;56.18;101668.09;4898319;29;19915;-89
2023/10/10 13:41:03;;;;;;;;;;;;;;;24.02;57.78;101677.88;4898039;29;19986;-89
2023/10/10 13:43:28;;;;;;;;;;;;;;;24.23;54.98;101673.03;4897896;29;20062;-90
2023/10/10 13:45:57;;;;;;;;;;;;;;;24.24;54.72;101672.97;4914866;29;19926;-89
2023/10/10 13:48:24;;;;;;;;;;;;;;;24.24;57.32;101672.13;4897748;29;19915;-90
2023/10/10 13:50:55;;;;;;;;;;;;;;;24.26;56.36;101668.53;4897918;29;19938;-89
2023/10/10 13:53:21;;;;;;;;;;;;;;;24.25;54.11;101669.41;4898154;29;20408;-90
2023/10/10 13:55:46;;;;;;;;;;;;;;;24.26;56.55;101667.63;4915141;29;19974;-89
2023/10/10 13:58:13;;;;;;;;;;;;;;;24.33;57.30;101665.72;4897692;29;19911;-90
2023/10/10 14:00:39;;;;;;;;;;;;;;;24.31;56.69;101655.09;4915691;29;19919;-90
2023/10/10 14:03:05;;;;;;;;;;;;;;;24.29;57.14;101656.94;4905968;29;19915;-90
2023/10/10 14:05:34;;;;;;;;;;;;;;;24.22;58.87;101652.66;4879806;29;19931;-90
2023/10/10 14:08:02;;;;;;;;;;;;;;;24.23;57.58;101651.72;4905498;29;19916;-90
2023/10/10 14:10:33;;;;;;;;;;;;;;;24.18;57.43;101646.50;4897785;29;19922;-90
2023/10/10 14:13:11;;;;;;;;;;;;;;;24.08;58.25;101656.44;4897775;29;20337;-89
2023/10/10 14:15:36;;;;;;;;;;;;;;;24.06;58.91;101652.06;4914596;29;19919;-90
2023/10/10 14:18:01;;;;;;;;;;;;;;;24.09;58.66;101644.88;4897507;29;19915;-89
2023/10/10 14:20:26;;;;;;;;;;;;;;;24.16;60.10;101647.41;4903352;29;19926;-90
2023/10/10 14:22:52;;;;;;;;;;;;;;;24.25;58.42;101642.78;4885734;29;19951;-90
2023/10/10 14:25:17;;;;;;;;;;;;;;;24.29;59.16;101648.94;4914749;29;19923;-91
2023/10/10 14:27:43;;;;;;;;;;;;;;;24.30;55.81;101634.69;4896770;29;19937;-91
2023/10/10 14:30:20;;;;;;;;;;;;;;;24.34;57.26;101640.84;4913064;29;19930;-90
2023/10/10 14:32:46;;;;;;;;;;;;;;;24.27;54.88;101633.00;4883503;29;20183;-91
2023/10/10 14:35:12;;;;;;;;;;;;;;;24.24;53.34;101632.16;4871606;29;19916;-90
2023/10/10 14:37:37;;;;;;;;;;;;;;;24.22;55.21;101634.88;4883978;29;19974;-91
2023/10/10 14:40:08;;;;;;;;;;;;;;;24.13;53.98;101622.63;4884330;29;19924;-90
2023/10/10 14:42:33;;;;;;;;;;;;;;;24.06;56.13;101620.13;4887449;29;19938;-90
2023/10/10 14:44:59;;;;;;;;;;;;;;;24.10;56.16;101622.69;4885768;29;20382;-90
2023/10/10 14:47:24;;;;;;;;;;;;;;;24.16;54.56;101612.81;4886493;29;19970;-90
2023/10/10 14:49:55;;;;;;;;;;;;;;;24.17;56.64;101612.78;4884952;29;19942;-90
2023/10/10 14:52:21;;;;;;;;;;;;;;;24.30;55.67;101613.38;4887418;29;19923;-90
2023/10/10 14:54:48;;;;;;;;;;;;;;;24.36;53.34;101607.94;4869873;29;19935;-90
2023/10/10 14:57:24;;;;;;;;;;;;;;;24.35;51.28;101603.53;4889591;29;20315;-90
2023/10/10 14:59:49;;;;;;;;;;;;;;;24.31;55.34;101601.84;4885603;29;19990;-90
2023/10/10 15:02:16;;;;;;;;;;;;;;;24.23;51.08;101596.69;4870652;29;20461;-90
2023/10/10 15:04:41;;;;;;;;;;;;;;;24.09;52.76;101594.31;4881580;29;20039;-90
2023/10/10 15:07:06;;;;;;;;;;;;;;;24.00;53.61;101599.81;4887528;29;20011;-90
2023/10/10 15:09:35;;;;;;;;;;;;;;;24.03;53.74;101594.44;4892025;29;19926;-90
2023/10/10 15:12:01;;;;;;;;;;;;;;;24.03;53.82;101590.88;4885969;29;19919;-90
2023/10/10 15:14:27;;;;;;;;;;;;;;;23.98;54.34;101592.78;4871970;29;19994;-89
2023/10/10 15:16:52;;;;;;;;;;;;;;;23.97;53.69;101589.25;4894879;29;20503;-90
2023/10/10 15:19:18;;;;;;;;;;;;;;;23.97;52.10;101591.91;4900435;29;19920;-90
2023/10/10 15:21:48;;;;;;;;;;;;;;;23.88;53.02;101594.72;4895049;29;19954;-90
2023/10/10 15:24:14;;;;;;;;;;;;;;;23.77;55.63;101593.13;4893348;29;19926;-90
2023/10/10 15:26:40;;;;;;;;;;;;;;;23.76;55.16;101590.50;4901268;29;19932;-89
2023/10/10 15:29:10;;;;;;;;;;;;;;;23.65;55.43;101582.75;4877840;29;19922;-90
2023/10/10 15:31:35;;;;;;;;;;;;;;;23.56;54.69;101590.88;4889890;29;19951;-90
2023/10/10 15:34:00;;;;;;;;;;;;;;;23.47;54.70;101581.28;4882878;29;19959;-90